createdAt,value
2022-09-07T00:00:01.448Z,17.38
2022-09-07T00:05:01.484Z,17.28
2022-09-07T00:10:01.571Z,17.35
2022-09-07T00:15:01.352Z,17.28
2022-09-07T00:20:01.682Z,17.26
2022-09-07T00:25:02.067Z,17.17
2022-09-07T00:30:01.913Z,17.07
2022-09-07T00:35:01.279Z,17.03
2022-09-07T00:40:02.106Z,17.1
2022-09-07T00:45:01.379Z,17.25
2022-09-07T00:50:02.229Z,17.17
2022-09-07T00:55:01.753Z,17.06
2022-09-07T01:00:01.880Z,17.04
2022-09-07T01:05:02.920Z,17.09
2022-09-07T01:10:02.132Z,17.08
2022-09-07T01:15:01.464Z,17.07
2022-09-07T01:20:02.159Z,17.05
2022-09-07T01:25:02.346Z,16.96
2022-09-07T01:30:01.343Z,16.9
2022-09-07T01:35:01.458Z,16.89
2022-09-07T01:40:02.171Z,16.9
2022-09-07T01:45:01.453Z,16.95
2022-09-07T01:50:01.342Z,16.89
2022-09-07T01:55:01.178Z,16.95
2022-09-07T02:00:01.570Z,16.8
2022-09-07T02:05:01.264Z,16.78
2022-09-07T02:10:01.228Z,16.82
2022-09-07T02:15:01.209Z,16.78
2022-09-07T02:20:01.967Z,16.8
2022-09-07T02:25:02.054Z,16.73
2022-09-07T02:30:01.448Z,16.76
2022-09-07T02:35:01.256Z,16.72
2022-09-07T02:40:01.702Z,16.72
2022-09-07T02:45:01.339Z,16.65
2022-09-07T02:50:01.449Z,16.56
2022-09-07T02:55:01.485Z,16.57
2022-09-07T03:00:01.533Z,16.54
2022-09-07T03:05:01.865Z,16.47
2022-09-07T03:10:01.720Z,16.43
2022-09-07T03:15:01.302Z,16.41
2022-09-07T03:20:01.349Z,16.35
2022-09-07T03:25:01.785Z,16.36
2022-09-07T03:30:01.332Z,16.27
2022-09-07T03:35:01.201Z,16.2
2022-09-07T03:40:02.204Z,16.18
2022-09-07T03:45:01.276Z,16.07
2022-09-07T03:50:01.302Z,15.88
2022-09-07T03:55:01.464Z,15.86
2022-09-07T04:00:01.655Z,15.92
2022-09-07T04:05:01.746Z,15.99
2022-09-07T04:10:01.434Z,15.97
2022-09-07T04:15:01.748Z,16.03
2022-09-07T04:20:01.611Z,16.08
2022-09-07T04:25:02.000Z,16.12
2022-09-07T04:30:01.306Z,15.96
2022-09-07T04:35:01.605Z,16.01
2022-09-07T04:40:01.667Z,16
2022-09-07T04:45:01.561Z,15.95
2022-09-07T04:50:01.836Z,15.93
2022-09-07T04:55:01.859Z,15.89
2022-09-07T05:00:02.052Z,15.87
2022-09-07T05:05:02.899Z,15.84
2022-09-07T05:10:01.502Z,15.83
2022-09-07T05:15:02.032Z,15.82
2022-09-07T05:20:01.564Z,15.83
2022-09-07T05:25:01.870Z,15.75
2022-09-07T05:30:03.581Z,15.75
2022-09-07T05:35:01.263Z,15.78
2022-09-07T05:40:01.371Z,15.75
2022-09-07T05:45:01.279Z,15.78
2022-09-07T05:50:01.522Z,15.8
2022-09-07T05:55:19.251Z,15.95
2022-09-07T06:00:01.325Z,16.19
2022-09-07T06:05:01.808Z,16.27
2022-09-07T06:10:44.682Z,16.36
2022-09-07T06:15:01.216Z,16.49
2022-09-07T06:20:01.787Z,16.64
2022-09-07T06:25:02.114Z,16.64
2022-09-07T06:30:01.632Z,16.91
2022-09-07T06:35:01.401Z,16.98
2022-09-07T06:40:01.744Z,17.19
2022-09-07T06:45:01.172Z,17.38
2022-09-07T06:50:01.297Z,17.62
2022-09-07T06:55:01.504Z,17.72
2022-09-07T07:00:02.022Z,17.83
2022-09-07T07:05:01.498Z,17.93
2022-09-07T07:10:01.191Z,18.2
2022-09-07T07:15:01.853Z,18.29
2022-09-07T07:20:01.876Z,18.33
2022-09-07T07:25:01.902Z,18.38
2022-09-07T07:30:01.982Z,18.7
2022-09-07T07:35:01.662Z,19.15
2022-09-07T07:40:19.790Z,19.5
2022-09-07T07:45:56.253Z,19.99
2022-09-07T07:50:32.235Z,20.37
2022-09-07T07:55:01.379Z,21.07
2022-09-07T08:00:01.466Z,21.21
2022-09-07T08:05:01.858Z,21.54
2022-09-07T08:10:01.498Z,21.63
2022-09-07T08:15:01.754Z,21.22
2022-09-07T08:20:01.197Z,21.36
2022-09-07T08:25:01.406Z,21.67
2022-09-07T08:30:02.092Z,21.36
2022-09-07T08:35:01.684Z,21.33
2022-09-07T08:40:01.597Z,21.25
2022-09-07T08:45:01.568Z,21.14
2022-09-07T08:50:01.349Z,21.43
2022-09-07T08:55:01.417Z,21.31
2022-09-07T09:00:01.760Z,21.13
2022-09-07T09:05:18.193Z,21.28
2022-09-07T09:10:01.227Z,21.39
2022-09-07T09:15:01.464Z,21.35
2022-09-07T09:20:02.033Z,21.75
2022-09-07T09:25:01.568Z,22.07
2022-09-07T09:30:01.839Z,22.31
2022-09-07T09:35:01.203Z,22.32
2022-09-07T09:40:02.943Z,22.64
2022-09-07T09:45:01.808Z,22.58
2022-09-07T09:50:01.512Z,22.44
2022-09-07T09:55:33.887Z,22.28
2022-09-07T10:00:07.037Z,22.6
2022-09-07T10:05:01.142Z,22.57
2022-09-07T10:10:01.631Z,22.43
2022-09-07T10:15:01.955Z,22.54
2022-09-07T10:20:01.985Z,22.33
2022-09-07T10:25:01.507Z,22.27
2022-09-07T10:30:01.419Z,22.29
2022-09-07T10:35:02.114Z,21.82
2022-09-07T10:40:01.247Z,21.67
2022-09-07T10:45:01.948Z,21.69
2022-09-07T10:50:23.625Z,21.65
2022-09-07T10:55:01.924Z,21.45
2022-09-07T11:00:09.482Z,21.44
2022-09-07T11:05:01.703Z,21.63
2022-09-07T11:10:01.236Z,22.18
2022-09-07T11:15:01.635Z,22.51
2022-09-07T11:20:01.337Z,22.85
2022-09-07T11:25:30.639Z,22.88
2022-09-07T11:30:01.864Z,22.76
2022-09-07T11:35:01.759Z,22.82
2022-09-07T11:40:01.356Z,22.93
2022-09-07T11:45:01.205Z,22.93
2022-09-07T11:50:01.577Z,23.26
2022-09-07T11:55:02.128Z,23.26
2022-09-07T12:00:01.608Z,23.31
2022-09-07T12:05:01.265Z,23.41
2022-09-07T12:10:01.830Z,23.57
2022-09-07T12:15:01.748Z,23.6
2022-09-07T12:20:01.491Z,23.86
2022-09-07T12:25:01.998Z,23.92
2022-09-07T12:30:02.500Z,23.9
2022-09-07T12:35:01.735Z,23.86
2022-09-07T12:40:01.642Z,23.76
2022-09-07T12:45:01.283Z,23.68
2022-09-07T12:50:01.714Z,23.72
2022-09-07T12:55:25.779Z,23.75
2022-09-07T13:00:02.244Z,24.05
2022-09-07T13:05:01.807Z,24.1
2022-09-07T13:10:01.513Z,23.99
2022-09-07T13:15:02.601Z,23.96
2022-09-07T13:20:02.027Z,23.96
2022-09-07T13:25:01.666Z,23.85
2022-09-07T13:30:02.084Z,23.88
2022-09-07T13:35:01.666Z,24.01
2022-09-07T13:40:02.149Z,24.27
2022-09-07T13:45:01.977Z,24.23
2022-09-07T13:50:01.294Z,24.43
2022-09-07T13:55:01.468Z,24.62
2022-09-07T14:00:01.321Z,24.62
2022-09-07T14:05:02.694Z,24.69
2022-09-07T14:10:01.467Z,24.72
2022-09-07T14:15:04.728Z,24.69
2022-09-07T14:20:02.030Z,24.74
2022-09-07T14:25:02.072Z,24.76
2022-09-07T14:30:01.370Z,24.62
2022-09-07T14:35:02.245Z,24.38
2022-09-07T14:40:02.234Z,24.33
2022-09-07T14:45:02.234Z,24.25
2022-09-07T14:50:01.863Z,24.16
2022-09-07T14:55:01.246Z,24.16
2022-09-07T15:00:01.919Z,24.04
2022-09-07T15:05:01.865Z,24.01
2022-09-07T15:10:02.459Z,23.96
2022-09-07T15:15:02.469Z,23.95
2022-09-07T15:20:01.926Z,23.73
2022-09-07T15:25:02.268Z,23.75
2022-09-07T15:30:01.418Z,23.77
2022-09-07T15:35:01.657Z,23.83
2022-09-07T15:40:02.396Z,23.96
2022-09-07T15:45:02.217Z,23.88
2022-09-07T15:50:01.627Z,24.03
2022-09-07T15:55:01.600Z,23.97
2022-09-07T16:00:02.191Z,24.09
2022-09-07T16:05:01.918Z,24.14
2022-09-07T16:10:02.760Z,23.91
2022-09-07T16:15:02.517Z,23.69
2022-09-07T16:20:02.430Z,23.64
2022-09-07T16:25:02.316Z,23.67
2022-09-07T16:30:02.020Z,23.88
2022-09-07T16:35:01.882Z,24.03
2022-09-07T16:40:01.332Z,23.95
2022-09-07T16:46:03.560Z,23.6
2022-09-07T16:50:02.205Z,23.32
2022-09-07T16:55:02.164Z,23.03
2022-09-07T17:00:02.065Z,22.83
2022-09-07T17:05:02.302Z,22.52
2022-09-07T17:10:02.448Z,22.31
2022-09-07T17:15:02.312Z,22.02
2022-09-07T17:20:02.052Z,21.99
2022-09-07T17:25:01.272Z,22.19
2022-09-07T17:30:01.267Z,22.33
2022-09-07T17:35:02.115Z,22.36
2022-09-07T17:40:05.272Z,22.26
2022-09-07T17:45:02.375Z,22.34
2022-09-07T17:50:02.134Z,22.27
2022-09-07T17:55:01.860Z,22.1
2022-09-07T18:00:13.393Z,21.89
2022-09-07T18:05:01.557Z,21.83
2022-09-07T18:10:02.222Z,21.88
2022-09-07T18:15:01.750Z,21.95
2022-09-07T18:20:02.054Z,21.84
2022-09-07T18:25:03.438Z,21.76
2022-09-07T18:30:01.987Z,21.72
2022-09-07T18:35:01.288Z,21.7
2022-09-07T18:40:01.405Z,21.68
2022-09-07T18:45:28.648Z,21.54
2022-09-07T18:50:02.469Z,21.4
2022-09-07T18:55:01.476Z,21.18
2022-09-07T19:00:01.919Z,21.07
2022-09-07T19:05:52.943Z,21.07
2022-09-07T19:10:01.298Z,20.81
2022-09-07T19:15:01.584Z,20.86
2022-09-07T19:20:01.952Z,20.78
2022-09-07T19:25:01.575Z,20.76
2022-09-07T19:30:01.891Z,20.76
2022-09-07T19:35:01.499Z,20.74
2022-09-07T19:40:01.664Z,20.65
2022-09-07T19:45:01.458Z,20.55
2022-09-07T19:50:01.220Z,20.36
2022-09-07T19:55:01.659Z,20.26
2022-09-07T20:00:01.714Z,20.2
2022-09-07T20:05:02.111Z,20.2
2022-09-07T20:10:01.594Z,19.69
2022-09-07T20:15:02.041Z,19.68
2022-09-07T20:20:01.577Z,19.65
2022-09-07T20:25:01.750Z,19.62
2022-09-07T20:30:02.268Z,19.6
2022-09-07T20:35:01.425Z,19.44
2022-09-07T20:40:01.935Z,19.33
2022-09-07T20:45:01.900Z,19.23
2022-09-07T20:50:01.661Z,19.07
2022-09-07T20:55:02.138Z,18.96
2022-09-07T21:00:01.524Z,18.95
2022-09-07T21:05:01.993Z,19
2022-09-07T21:10:06.102Z,18.94
2022-09-07T21:15:01.577Z,18.82
2022-09-07T21:20:01.460Z,18.69
2022-09-07T21:25:01.435Z,18.64
2022-09-07T21:30:01.607Z,18.44
2022-09-07T21:35:01.917Z,18.32
2022-09-07T21:40:01.478Z,18.28
2022-09-07T21:45:01.384Z,18.47
2022-09-07T21:50:01.265Z,18.69
2022-09-07T21:55:01.619Z,18.77
2022-09-07T22:00:01.538Z,18.82
2022-09-07T22:05:01.673Z,18.84
2022-09-07T22:10:01.331Z,18.78
2022-09-07T22:15:02.140Z,18.65
2022-09-07T22:20:01.365Z,18.58
2022-09-07T22:25:01.841Z,18.55
2022-09-07T22:30:01.393Z,18.48
2022-09-07T22:35:01.963Z,18.36
2022-09-07T22:40:01.313Z,18.21
2022-09-07T22:45:01.302Z,18.1
2022-09-07T22:50:01.814Z,17.97
2022-09-07T22:55:57.730Z,17.91
2022-09-07T23:00:01.962Z,18
2022-09-07T23:05:02.205Z,17.96
2022-09-07T23:10:01.982Z,17.94
2022-09-07T23:15:01.149Z,17.94
2022-09-07T23:20:01.560Z,17.68
2022-09-07T23:25:01.459Z,17.69
2022-09-07T23:30:01.490Z,17.44
2022-09-07T23:35:02.058Z,17.37
2022-09-07T23:40:01.595Z,17.21
2022-09-07T23:45:01.274Z,17.15
2022-09-07T23:50:02.123Z,17.06
2022-09-07T23:55:01.568Z,16.98
